sensor_id;sensor_type;location;lat;lon;timestamp;pressure;altitude;pressure_sealevel;temperature;humidity
28181;BME280;15464;50.988;10.318;2022-10-16T00:00:47;98585.03;;;14.24;100.00
28181;BME280;15464;50.988;10.318;2022-10-16T00:03:14;98579.50;;;14.17;100.00
28181;BME280;15464;50.988;10.318;2022-10-16T00:05:42;98594.13;;;14.13;100.00
28181;BME280;15464;50.988;10.318;2022-10-16T00:08:11;98593.66;;;14.09;100.00
28181;BME280;15464;50.988;10.318;2022-10-16T00:10:38;98582.13;;;14.09;100.00
28181;BME280;15464;50.988;10.318;2022-10-16T00:15:55;98591.47;;;14.05;100.00
28181;BME280;15464;50.988;10.318;2022-10-16T00:18:22;98596.47;;;14.08;100.00
28181;BME280;15464;50.988;10.318;2022-10-16T00:20:49;98594.78;;;14.07;100.00
28181;BME280;15464;50.988;10.318;2022-10-16T00:23:16;98600.97;;;14.07;100.00
28181;BME280;15464;50.988;10.318;2022-10-16T00:25:43;98612.47;;;14.08;100.00
28181;BME280;15464;50.988;10.318;2022-10-16T00:28:09;98599.81;;;14.10;100.00
28181;BME280;15464;50.988;10.318;2022-10-16T00:30:39;98604.16;;;14.11;100.00
28181;BME280;15464;50.988;10.318;2022-10-16T00:33:06;98616.16;;;14.15;100.00
28181;BME280;15464;50.988;10.318;2022-10-16T00:35:32;98608.16;;;14.15;100.00
28181;BME280;15464;50.988;10.318;2022-10-16T00:37:59;98607.81;;;14.18;100.00
28181;BME280;15464;50.988;10.318;2022-10-16T00:40:26;98615.50;;;14.21;100.00
28181;BME280;15464;50.988;10.318;2022-10-16T00:42:54;98611.69;;;14.24;100.00
28181;BME280;15464;50.988;10.318;2022-10-16T00:45:21;98602.53;;;14.26;100.00
28181;BME280;15464;50.988;10.318;2022-10-16T00:47:48;98606.72;;;14.29;100.00
28181;BME280;15464;50.988;10.318;2022-10-16T00:50:24;98597.53;;;14.31;100.00
28181;BME280;15464;50.988;10.318;2022-10-16T00:52:54;98607.88;;;14.34;100.00
28181;BME280;15464;50.988;10.318;2022-10-16T00:55:21;98609.38;;;14.37;100.00
28181;BME280;15464;50.988;10.318;2022-10-16T00:57:49;98594.91;;;14.39;100.00
28181;BME280;15464;50.988;10.318;2022-10-16T01:00:19;98592.94;;;14.41;100.00
28181;BME280;15464;50.988;10.318;2022-10-16T01:02:54;98608.94;;;14.41;100.00
28181;BME280;15464;50.988;10.318;2022-10-16T01:05:22;98612.59;;;14.40;100.00
28181;BME280;15464;50.988;10.318;2022-10-16T01:08:09;98620.63;;;14.40;100.00
28181;BME280;15464;50.988;10.318;2022-10-16T01:10:54;98623.28;;;14.40;100.00
28181;BME280;15464;50.988;10.318;2022-10-16T01:13:44;98619.63;;;14.41;100.00
28181;BME280;15464;50.988;10.318;2022-10-16T01:16:18;98602.78;;;14.41;100.00
28181;BME280;15464;50.988;10.318;2022-10-16T01:18:55;98604.25;;;14.43;100.00
28181;BME280;15464;50.988;10.318;2022-10-16T01:21:31;98615.13;;;14.42;100.00
28181;BME280;15464;50.988;10.318;2022-10-16T01:24:26;98624.13;;;14.41;100.00
28181;BME280;15464;50.988;10.318;2022-10-16T01:27:07;98632.63;;;14.44;100.00
28181;BME280;15464;50.988;10.318;2022-10-16T01:35:04;98637.94;;;14.36;100.00
28181;BME280;15464;50.988;10.318;2022-10-16T01:38:00;98641.88;;;14.32;100.00
28181;BME280;15464;50.988;10.318;2022-10-16T01:40:26;98636.38;;;14.26;100.00
28181;BME280;15464;50.988;10.318;2022-10-16T01:43:00;98652.72;;;14.31;100.00
28181;BME280;15464;50.988;10.318;2022-10-16T01:45:29;98636.91;;;14.29;100.00
28181;BME280;15464;50.988;10.318;2022-10-16T01:47:58;98647.56;;;14.29;100.00
28181;BME280;15464;50.988;10.318;2022-10-16T01:50:27;98650.53;;;14.26;100.00
28181;BME280;15464;50.988;10.318;2022-10-16T01:52:56;98652.38;;;14.26;100.00
28181;BME280;15464;50.988;10.318;2022-10-16T01:55:33;98649.19;;;14.22;100.00
28181;BME280;15464;50.988;10.318;2022-10-16T01:58:02;98654.84;;;14.19;100.00
28181;BME280;15464;50.988;10.318;2022-10-16T02:00:31;98642.84;;;14.15;100.00
28181;BME280;15464;50.988;10.318;2022-10-16T02:03:01;98653.47;;;14.07;100.00
28181;BME280;15464;50.988;10.318;2022-10-16T02:05:33;98657.66;;;14.09;100.00
28181;BME280;15464;50.988;10.318;2022-10-16T02:08:03;98648.66;;;14.10;100.00
28181;BME280;15464;50.988;10.318;2022-10-16T02:10:31;98641.13;;;14.06;100.00
28181;BME280;15464;50.988;10.318;2022-10-16T02:15:33;98652.13;;;14.03;100.00
28181;BME280;15464;50.988;10.318;2022-10-16T02:18:04;98654.09;;;14.01;100.00
28181;BME280;15464;50.988;10.318;2022-10-16T02:20:36;98670.25;;;13.99;100.00
28181;BME280;15464;50.988;10.318;2022-10-16T02:23:09;98665.09;;;13.98;100.00
28181;BME280;15464;50.988;10.318;2022-10-16T02:25:41;98662.09;;;13.93;100.00
28181;BME280;15464;50.988;10.318;2022-10-16T02:28:16;98668.03;;;13.87;100.00
28181;BME280;15464;50.988;10.318;2022-10-16T02:31:04;98662.53;;;13.88;100.00
28181;BME280;15464;50.988;10.318;2022-10-16T02:33:35;98670.53;;;13.88;100.00
28181;BME280;15464;50.988;10.318;2022-10-16T02:36:05;98660.72;;;13.89;100.00
28181;BME280;15464;50.988;10.318;2022-10-16T02:38:32;98647.72;;;13.86;100.00
28181;BME280;15464;50.988;10.318;2022-10-16T02:40:58;98651.22;;;13.86;100.00
28181;BME280;15464;50.988;10.318;2022-10-16T02:43:25;98653.41;;;13.91;100.00
28181;BME280;15464;50.988;10.318;2022-10-16T02:45:52;98651.88;;;13.88;100.00
28181;BME280;15464;50.988;10.318;2022-10-16T02:48:19;98642.88;;;13.89;100.00
28181;BME280;15464;50.988;10.318;2022-10-16T02:50:46;98646.03;;;13.85;100.00
28181;BME280;15464;50.988;10.318;2022-10-16T02:53:12;98662.19;;;13.83;100.00
28181;BME280;15464;50.988;10.318;2022-10-16T02:55:39;98661.34;;;13.83;100.00
28181;BME280;15464;50.988;10.318;2022-10-16T02:58:05;98650.69;;;13.83;100.00
28181;BME280;15464;50.988;10.318;2022-10-16T03:00:32;98644.66;;;13.81;100.00
28181;BME280;15464;50.988;10.318;2022-10-16T03:02:59;98652.16;;;13.77;100.00
28181;BME280;15464;50.988;10.318;2022-10-16T03:05:25;98637.00;;;13.78;100.00
28181;BME280;15464;50.988;10.318;2022-10-16T03:07:52;98638.34;;;13.82;100.00
28181;BME280;15464;50.988;10.318;2022-10-16T03:10:19;98646.19;;;13.83;100.00
28181;BME280;15464;50.988;10.318;2022-10-16T03:12:45;98651.66;;;13.82;100.00
28181;BME280;15464;50.988;10.318;2022-10-16T03:15:12;98652.34;;;13.84;100.00
28181;BME280;15464;50.988;10.318;2022-10-16T03:17:38;98653.50;;;13.81;100.00
28181;BME280;15464;50.988;10.318;2022-10-16T03:20:05;98668.28;;;13.76;100.00
28181;BME280;15464;50.988;10.318;2022-10-16T03:22:32;98670.97;;;13.76;100.00
28181;BME280;15464;50.988;10.318;2022-10-16T03:24:59;98672.97;;;13.73;100.00
28181;BME280;15464;50.988;10.318;2022-10-16T03:27:25;98659.47;;;13.75;100.00
28181;BME280;15464;50.988;10.318;2022-10-16T03:29:53;98651.47;;;13.75;100.00
28181;BME280;15464;50.988;10.318;2022-10-16T03:32:19;98658.31;;;13.78;100.00
28181;BME280;15464;50.988;10.318;2022-10-16T03:34:46;98653.00;;;13.78;100.00
28181;BME280;15464;50.988;10.318;2022-10-16T03:37:13;98659.47;;;13.75;100.00
28181;BME280;15464;50.988;10.318;2022-10-16T03:39:39;98675.25;;;13.68;100.00
28181;BME280;15464;50.988;10.318;2022-10-16T03:42:06;98667.63;;;13.73;100.00
28181;BME280;15464;50.988;10.318;2022-10-16T03:44:33;98663.81;;;13.76;100.00
28181;BME280;15464;50.988;10.318;2022-10-16T03:46:59;98676.84;;;13.79;100.00
28181;BME280;15464;50.988;10.318;2022-10-16T03:49:26;98680.78;;;13.75;100.00
28181;BME280;15464;50.988;10.318;2022-10-16T03:51:52;98672.97;;;13.73;100.00
28181;BME280;15464;50.988;10.318;2022-10-16T03:54:19;98667.25;;;13.68;100.00
28181;BME280;15464;50.988;10.318;2022-10-16T03:56:46;98671.59;;;13.69;100.00
28181;BME280;15464;50.988;10.318;2022-10-16T03:59:12;98688.44;;;13.70;100.00
28181;BME280;15464;50.988;10.318;2022-10-16T04:01:39;98692.09;;;13.69;100.00
28181;BME280;15464;50.988;10.318;2022-10-16T04:04:06;98691.94;;;13.70;100.00
28181;BME280;15464;50.988;10.318;2022-10-16T04:06:32;98691.25;;;13.68;100.00
28181;BME280;15464;50.988;10.318;2022-10-16T04:08:59;98704.56;;;13.68;100.00
28181;BME280;15464;50.988;10.318;2022-10-16T04:11:26;98694.59;;;13.70;100.00
28181;BME280;15464;50.988;10.318;2022-10-16T04:13:52;98696.56;;;13.68;100.00
28181;BME280;15464;50.988;10.318;2022-10-16T04:16:19;98696.56;;;13.68;100.00
28181;BME280;15464;50.988;10.318;2022-10-16T04:18:46;98699.09;;;13.70;100.00
28181;BME280;15464;50.988;10.318;2022-10-16T04:21:13;98695.59;;;13.69;100.00
28181;BME280;15464;50.988;10.318;2022-10-16T04:23:39;98706.25;;;13.69;100.00
28181;BME280;15464;50.988;10.318;2022-10-16T04:26:06;98706.94;;;13.71;100.00
28181;BME280;15464;50.988;10.318;2022-10-16T04:28:32;98715.22;;;13.68;100.00
28181;BME280;15464;50.988;10.318;2022-10-16T04:30:59;98720.88;;;13.65;100.00
28181;BME280;15464;50.988;10.318;2022-10-16T04:33:26;98731.41;;;13.67;100.00
28181;BME280;15464;50.988;10.318;2022-10-16T04:35:57;98729.41;;;13.69;100.00
28181;BME280;15464;50.988;10.318;2022-10-16T04:38:24;98744.25;;;13.71;100.00
28181;BME280;15464;50.988;10.318;2022-10-16T04:40:51;98745.78;;;13.74;100.00
28181;BME280;15464;50.988;10.318;2022-10-16T04:43:19;98736.94;;;13.73;100.00
28181;BME280;15464;50.988;10.318;2022-10-16T04:45:45;98737.25;;;13.70;100.00
28181;BME280;15464;50.988;10.318;2022-10-16T04:48:12;98751.25;;;13.72;100.00
28181;BME280;15464;50.988;10.318;2022-10-16T04:50:39;98766.09;;;13.75;100.00
28181;BME280;15464;50.988;10.318;2022-10-16T04:53:06;98759.25;;;13.72;100.00
28181;BME280;15464;50.988;10.318;2022-10-16T04:55:33;98757.72;;;13.70;100.00
28181;BME280;15464;50.988;10.318;2022-10-16T04:58:00;98762.75;;;13.73;100.00
28181;BME280;15464;50.988;10.318;2022-10-16T05:00:26;98762.44;;;13.76;100.00
28181;BME280;15464;50.988;10.318;2022-10-16T05:02:53;98765.94;;;13.77;100.00
28181;BME280;15464;50.988;10.318;2022-10-16T05:05:20;98764.13;;;13.77;100.00
28181;BME280;15464;50.988;10.318;2022-10-16T05:07:47;98765.09;;;13.76;100.00
28181;BME280;15464;50.988;10.318;2022-10-16T05:10:14;98767.91;;;13.74;100.00
28181;BME280;15464;50.988;10.318;2022-10-16T05:12:41;98766.63;;;13.79;100.00
28181;BME280;15464;50.988;10.318;2022-10-16T05:15:08;98771.63;;;13.82;100.00
28181;BME280;15464;50.988;10.318;2022-10-16T05:17:34;98780.63;;;13.81;100.00
28181;BME280;15464;50.988;10.318;2022-10-16T05:20:05;98778.97;;;13.80;100.00
28181;BME280;15464;50.988;10.318;2022-10-16T05:22:32;98764.34;;;13.84;100.00
28181;BME280;15464;50.988;10.318;2022-10-16T05:24:58;98746.38;;;13.86;100.00
28181;BME280;15464;50.988;10.318;2022-10-16T05:27:25;98704.06;;;13.91;100.00
28181;BME280;15464;50.988;10.318;2022-10-16T05:29:52;98691.03;;;13.88;100.00
28181;BME280;15464;50.988;10.318;2022-10-16T05:32:18;98697.47;;;13.77;100.00
28181;BME280;15464;50.988;10.318;2022-10-16T05:34:45;98695.66;;;13.78;100.00
28181;BME280;15464;50.988;10.318;2022-10-16T05:37:12;98693.97;;;13.77;100.00
28181;BME280;15464;50.988;10.318;2022-10-16T05:39:39;98724.28;;;13.76;100.00
28181;BME280;15464;50.988;10.318;2022-10-16T05:42:06;98728.63;;;13.77;100.00
28181;BME280;15464;50.988;10.318;2022-10-16T05:44:32;98743.63;;;13.78;100.00
28181;BME280;15464;50.988;10.318;2022-10-16T05:47:04;98738.44;;;13.76;100.00
28181;BME280;15464;50.988;10.318;2022-10-16T05:49:31;98735.63;;;13.78;100.00
28181;BME280;15464;50.988;10.318;2022-10-16T05:51:57;98741.94;;;13.77;100.00
28181;BME280;15464;50.988;10.318;2022-10-16T05:54:24;98747.28;;;13.77;100.00
28181;BME280;15464;50.988;10.318;2022-10-16T05:56:51;98732.13;;;13.77;100.00
28181;BME280;15464;50.988;10.318;2022-10-16T05:59:17;98738.59;;;13.74;100.00
28181;BME280;15464;50.988;10.318;2022-10-16T06:01:44;98743.56;;;13.69;100.00
28181;BME280;15464;50.988;10.318;2022-10-16T06:04:10;98741.59;;;13.71;100.00
28181;BME280;15464;50.988;10.318;2022-10-16T06:06:42;98742.91;;;13.67;100.00
28181;BME280;15464;50.988;10.318;2022-10-16T06:09:09;98746.84;;;13.63;100.00
28181;BME280;15464;50.988;10.318;2022-10-16T06:11:36;98742.50;;;13.62;100.00
28181;BME280;15464;50.988;10.318;2022-10-16T06:14:02;98748.84;;;13.61;100.00
28181;BME280;15464;50.988;10.318;2022-10-16T06:16:35;98751.53;;;13.61;100.00
28181;BME280;15464;50.988;10.318;2022-10-16T06:19:03;98751.81;;;13.58;100.00
28181;BME280;15464;50.988;10.318;2022-10-16T06:21:32;98757.84;;;13.60;100.00
28181;BME280;15464;50.988;10.318;2022-10-16T06:23:59;98769.16;;;13.62;100.00
28181;BME280;15464;50.988;10.318;2022-10-16T06:26:28;98773.81;;;13.60;100.00
28181;BME280;15464;50.988;10.318;2022-10-16T06:28:56;98773.81;;;13.60;100.00
28181;BME280;15464;50.988;10.318;2022-10-16T06:31:24;98784.16;;;13.63;100.00
28181;BME280;15464;50.988;10.318;2022-10-16T06:33:54;98770.69;;;13.65;100.00
28181;BME280;15464;50.988;10.318;2022-10-16T06:36:21;98785.69;;;13.66;100.00
28181;BME280;15464;50.988;10.318;2022-10-16T06:38:48;98778.22;;;13.69;100.00
28181;BME280;15464;50.988;10.318;2022-10-16T06:41:17;98780.59;;;13.72;100.00
28181;BME280;15464;50.988;10.318;2022-10-16T06:43:46;98779.59;;;13.73;100.00
28181;BME280;15464;50.988;10.318;2022-10-16T06:46:17;98770.28;;;13.78;100.00
28181;BME280;15464;50.988;10.318;2022-10-16T06:48:44;98783.13;;;13.82;100.00
28181;BME280;15464;50.988;10.318;2022-10-16T06:51:21;98783.69;;;13.86;100.00
28181;BME280;15464;50.988;10.318;2022-10-16T06:53:51;98781.38;;;13.91;100.00
28181;BME280;15464;50.988;10.318;2022-10-16T06:56:34;98773.91;;;13.94;100.00
28181;BME280;15464;50.988;10.318;2022-10-16T06:59:00;98775.09;;;14.00;100.00
28181;BME280;15464;50.988;10.318;2022-10-16T07:01:28;98780.13;;;14.03;100.00
28181;BME280;15464;50.988;10.318;2022-10-16T07:03:55;98793.00;;;14.07;100.00
28181;BME280;15464;50.988;10.318;2022-10-16T07:06:23;98795.19;;;14.12;100.00
28181;BME280;15464;50.988;10.318;2022-10-16T07:08:51;98800.72;;;14.19;100.00
28181;BME280;15464;50.988;10.318;2022-10-16T07:11:20;98802.94;;;14.23;100.00
28181;BME280;15464;50.988;10.318;2022-10-16T07:13:48;98812.28;;;14.27;100.00
28181;BME280;15464;50.988;10.318;2022-10-16T07:16:23;98832.66;;;14.28;100.00
28181;BME280;15464;50.988;10.318;2022-10-16T07:18:50;98829.50;;;14.33;100.00
28181;BME280;15464;50.988;10.318;2022-10-16T07:21:21;98832.47;;;14.47;100.00
28181;BME280;15464;50.988;10.318;2022-10-16T07:23:57;98839.16;;;14.51;100.00
28181;BME280;15464;50.988;10.318;2022-10-16T07:26:25;98845.53;;;14.59;100.00
28181;BME280;15464;50.988;10.318;2022-10-16T07:28:52;98858.19;;;14.57;100.00
28181;BME280;15464;50.988;10.318;2022-10-16T07:31:20;98851.22;;;14.64;100.00
28181;BME280;15464;50.988;10.318;2022-10-16T07:33:47;98847.25;;;14.68;100.00
28181;BME280;15464;50.988;10.318;2022-10-16T07:36:16;98851.59;;;14.69;100.00
28181;BME280;15464;50.988;10.318;2022-10-16T07:38:43;98865.81;;;14.77;100.00
28181;BME280;15464;50.988;10.318;2022-10-16T07:41:12;98863.84;;;14.79;99.62
28181;BME280;15464;50.988;10.318;2022-10-16T07:43:39;98877.84;;;14.81;99.68
28181;BME280;15464;50.988;10.318;2022-10-16T07:46:06;98887.38;;;14.84;99.03
28181;BME280;15464;50.988;10.318;2022-10-16T07:48:34;98892.19;;;14.80;98.76
28181;BME280;15464;50.988;10.318;2022-10-16T07:51:04;98896.94;;;14.86;98.18
28181;BME280;15464;50.988;10.318;2022-10-16T07:53:31;98901.94;;;14.89;98.62
28181;BME280;15464;50.988;10.318;2022-10-16T07:56:04;98904.13;;;14.94;98.66
28181;BME280;15464;50.988;10.318;2022-10-16T07:58:33;98901.78;;;14.99;98.93
28181;BME280;15464;50.988;10.318;2022-10-16T08:01:04;98892.97;;;14.99;98.43
28181;BME280;15464;50.988;10.318;2022-10-16T08:03:31;98897.00;;;15.03;98.46
28181;BME280;15464;50.988;10.318;2022-10-16T08:06:00;98901.19;;;15.05;98.57
28181;BME280;15464;50.988;10.318;2022-10-16T08:08:27;98907.19;;;15.07;97.63
28181;BME280;15464;50.988;10.318;2022-10-16T08:10:54;98909.84;;;15.07;97.79
28181;BME280;15464;50.988;10.318;2022-10-16T08:13:21;98913.22;;;15.09;98.07
28181;BME280;15464;50.988;10.318;2022-10-16T08:15:48;98914.56;;;15.13;98.88
28181;BME280;15464;50.988;10.318;2022-10-16T08:18:15;98912.56;;;15.15;98.59
28181;BME280;15464;50.988;10.318;2022-10-16T08:20:42;98917.56;;;15.18;98.72
28181;BME280;15464;50.988;10.318;2022-10-16T08:23:11;98931.63;;;15.20;98.71
28181;BME280;15464;50.988;10.318;2022-10-16T08:25:39;98925.78;;;15.25;98.58
28181;BME280;15464;50.988;10.318;2022-10-16T08:28:07;98922.47;;;15.31;98.49
28181;BME280;15464;50.988;10.318;2022-10-16T08:30:34;98922.66;;;15.38;98.28
28181;BME280;15464;50.988;10.318;2022-10-16T08:33:01;98914.69;;;15.46;98.51
28181;BME280;15464;50.988;10.318;2022-10-16T08:35:28;98928.72;;;15.48;97.87
28181;BME280;15464;50.988;10.318;2022-10-16T08:37:55;98933.63;;;15.52;97.16
28181;BME280;15464;50.988;10.318;2022-10-16T08:40:25;98933.81;;;15.59;97.41
28181;BME280;15464;50.988;10.318;2022-10-16T08:48:19;98949.16;;;15.57;97.32
28181;BME280;15464;50.988;10.318;2022-10-16T08:50:47;98959.84;;;15.57;97.57
28181;BME280;15464;50.988;10.318;2022-10-16T08:53:23;98950.84;;;15.58;97.80
28181;BME280;15464;50.988;10.318;2022-10-16T08:55:53;98944.19;;;15.70;98.02
28181;BME280;15464;50.988;10.318;2022-10-16T08:58:22;98956.91;;;15.76;97.90
28181;BME280;15464;50.988;10.318;2022-10-16T09:00:56;98960.94;;;15.80;97.88
28181;BME280;15464;50.988;10.318;2022-10-16T09:23:12;98969.69;;;15.98;97.34
28181;BME280;15464;50.988;10.318;2022-10-16T09:25:43;98984.72;;;16.07;97.78
28181;BME280;15464;50.988;10.318;2022-10-16T09:28:11;98983.75;;;16.17;97.07
28181;BME280;15464;50.988;10.318;2022-10-16T09:30:38;99001.50;;;16.34;96.99
28181;BME280;15464;50.988;10.318;2022-10-16T09:33:08;99003.84;;;16.45;95.73
28181;BME280;15464;50.988;10.318;2022-10-16T09:35:44;99001.88;;;16.63;95.55
28181;BME280;15464;50.988;10.318;2022-10-16T09:38:27;99004.91;;;16.60;94.46
28181;BME280;15464;50.988;10.318;2022-10-16T09:40:56;99009.53;;;16.58;94.81
28181;BME280;15464;50.988;10.318;2022-10-16T09:43:35;99000.19;;;16.62;95.38
28181;BME280;15464;50.988;10.318;2022-10-16T09:46:06;99006.53;;;16.69;95.03
28181;BME280;15464;50.988;10.318;2022-10-16T09:48:43;99004.19;;;16.58;94.86
28181;BME280;15464;50.988;10.318;2022-10-16T09:51:19;98997.50;;;16.54;94.31
28181;BME280;15464;50.988;10.318;2022-10-16T09:53:47;99001.19;;;16.53;95.00
28181;BME280;15464;50.988;10.318;2022-10-16T09:56:41;99005.22;;;16.65;94.77
28181;BME280;15464;50.988;10.318;2022-10-16T09:59:15;99016.41;;;16.69;94.61
28181;BME280;15464;50.988;10.318;2022-10-16T10:01:47;99016.59;;;16.75;94.43
28181;BME280;15464;50.988;10.318;2022-10-16T10:04:15;99024.31;;;16.86;93.90
28181;BME280;15464;50.988;10.318;2022-10-16T10:07:02;99016.56;;;17.08;93.83
28181;BME280;15464;50.988;10.318;2022-10-16T10:09:37;99015.19;;;17.12;92.88
28181;BME280;15464;50.988;10.318;2022-10-16T10:12:06;99017.34;;;17.24;92.20
28181;BME280;15464;50.988;10.318;2022-10-16T10:14:49;99012.44;;;17.44;92.10
28181;BME280;15464;50.988;10.318;2022-10-16T10:17:19;99016.47;;;17.40;90.21
28181;BME280;15464;50.988;10.318;2022-10-16T10:19:49;99024.53;;;17.40;89.08
28181;BME280;15464;50.988;10.318;2022-10-16T10:35:45;99035.25;;;17.32;84.71
28181;BME280;15464;50.988;10.318;2022-10-16T10:46:35;99039.25;;;17.44;81.71
28181;BME280;15464;50.988;10.318;2022-10-16T10:49:19;99038.03;;;17.63;82.23
28181;BME280;15464;50.988;10.318;2022-10-16T10:55:06;99039.59;;;17.96;81.41
28181;BME280;15464;50.988;10.318;2022-10-16T11:00:31;99035.25;;;18.18;77.52
28181;BME280;15464;50.988;10.318;2022-10-16T11:05:42;99049.78;;;18.01;73.43
28181;BME280;15464;50.988;10.318;2022-10-16T11:15:48;99055.53;;;18.51;76.18
28181;BME280;15464;50.988;10.318;2022-10-16T11:18:21;99050.78;;;18.62;74.15
28181;BME280;15464;50.988;10.318;2022-10-16T11:21:00;99047.78;;;18.57;74.54
28181;BME280;15464;50.988;10.318;2022-10-16T11:26:05;99041.91;;;18.61;73.68
28181;BME280;15464;50.988;10.318;2022-10-16T11:28:56;99034.66;;;18.62;73.59
28181;BME280;15464;50.988;10.318;2022-10-16T11:34:17;99037.56;;;18.52;73.20
28181;BME280;15464;50.988;10.318;2022-10-16T11:37:10;99048.00;;;18.47;72.99
28181;BME280;15464;50.988;10.318;2022-10-16T11:39:39;99048.22;;;18.37;73.50
28181;BME280;15464;50.988;10.318;2022-10-16T11:42:15;99040.50;;;18.42;72.98
28181;BME280;15464;50.988;10.318;2022-10-16T11:44:53;99047.72;;;18.42;72.56
28181;BME280;15464;50.988;10.318;2022-10-16T11:47:30;99044.94;;;18.58;71.48
28181;BME280;15464;50.988;10.318;2022-10-16T11:56:18;99040.25;;;18.75;69.10
28181;BME280;15464;50.988;10.318;2022-10-16T11:58:59;99036.00;;;18.80;68.32
28181;BME280;15464;50.988;10.318;2022-10-16T12:04:50;99037.28;;;19.07;69.34
28181;BME280;15464;50.988;10.318;2022-10-16T12:07:41;99043.88;;;19.19;69.06
28181;BME280;15464;50.988;10.318;2022-10-16T12:10:22;99033.88;;;19.13;68.76
28181;BME280;15464;50.988;10.318;2022-10-16T12:12:53;99027.59;;;19.36;68.49
28181;BME280;15464;50.988;10.318;2022-10-16T12:18:21;99028.50;;;19.43;66.99
28181;BME280;15464;50.988;10.318;2022-10-16T12:20:58;99028.53;;;19.72;66.42
28181;BME280;15464;50.988;10.318;2022-10-16T12:23:31;99037.16;;;19.97;67.83
28181;BME280;15464;50.988;10.318;2022-10-16T12:25:59;99031.59;;;20.34;66.26
28181;BME280;15464;50.988;10.318;2022-10-16T12:28:30;99040.25;;;20.51;65.40
28181;BME280;15464;50.988;10.318;2022-10-16T12:31:03;99040.66;;;20.48;64.92
28181;BME280;15464;50.988;10.318;2022-10-16T12:33:33;99031.94;;;20.31;65.64
28181;BME280;15464;50.988;10.318;2022-10-16T12:36:05;99028.84;;;20.13;66.41
28181;BME280;15464;50.988;10.318;2022-10-16T12:38:50;99036.00;;;20.06;66.41
28181;BME280;15464;50.988;10.318;2022-10-16T12:41:36;99044.22;;;19.68;66.44
28181;BME280;15464;50.988;10.318;2022-10-16T12:44:23;99039.56;;;19.77;66.80
28181;BME280;15464;50.988;10.318;2022-10-16T12:46:52;99034.69;;;19.66;66.12
28181;BME280;15464;50.988;10.318;2022-10-16T12:49:29;99041.88;;;19.80;67.81
28181;BME280;15464;50.988;10.318;2022-10-16T12:51:57;99042.09;;;19.64;67.56
28181;BME280;15464;50.988;10.318;2022-10-16T13:10:54;99049.13;;;19.36;68.21
28181;BME280;15464;50.988;10.318;2022-10-16T13:13:13;99060.22;;;19.32;68.90
28181;BME280;15464;50.988;10.318;2022-10-16T13:15:54;99061.25;;;19.31;68.91
28181;BME280;15464;50.988;10.318;2022-10-16T13:27:07;99069.38;;;19.90;68.16
28181;BME280;15464;50.988;10.318;2022-10-16T13:29:37;99080.63;;;20.30;67.73
28181;BME280;15464;50.988;10.318;2022-10-16T13:32:10;99078.81;;;20.51;68.05
28181;BME280;15464;50.988;10.318;2022-10-16T13:34:46;99078.53;;;20.61;67.36
28181;BME280;15464;50.988;10.318;2022-10-16T13:37:24;99076.41;;;20.78;66.20
28181;BME280;15464;50.988;10.318;2022-10-16T13:40:05;99075.81;;;20.82;66.58
28181;BME280;15464;50.988;10.318;2022-10-16T13:42:35;99079.50;;;20.24;67.41
28181;BME280;15464;50.988;10.318;2022-10-16T13:45:02;99076.38;;;20.06;67.85
28181;BME280;15464;50.988;10.318;2022-10-16T13:47:29;99078.63;;;20.02;69.07
28181;BME280;15464;50.988;10.318;2022-10-16T13:50:11;99075.72;;;20.33;68.59
28181;BME280;15464;50.988;10.318;2022-10-16T13:52:39;99077.75;;;20.67;68.13
28181;BME280;15464;50.988;10.318;2022-10-16T13:55:17;99080.38;;;20.61;67.40
28181;BME280;15464;50.988;10.318;2022-10-16T13:57:44;99088.19;;;20.56;67.60
28181;BME280;15464;50.988;10.318;2022-10-16T14:00:22;99089.81;;;20.71;67.11
28181;BME280;15464;50.988;10.318;2022-10-16T14:03:03;99095.50;;;20.62;66.57
28181;BME280;15464;50.988;10.318;2022-10-16T14:05:31;99105.63;;;20.38;67.24
28181;BME280;15464;50.988;10.318;2022-10-16T14:07:59;99107.16;;;19.97;67.90
28181;BME280;15464;50.988;10.318;2022-10-16T14:10:31;99111.69;;;19.96;68.41
28181;BME280;15464;50.988;10.318;2022-10-16T14:13:03;99107.22;;;19.74;69.46
28181;BME280;15464;50.988;10.318;2022-10-16T14:15:33;99116.03;;;19.68;69.02
28181;BME280;15464;50.988;10.318;2022-10-16T14:18:01;99114.47;;;19.59;70.38
28181;BME280;15464;50.988;10.318;2022-10-16T14:20:30;99116.59;;;19.63;71.13
28181;BME280;15464;50.988;10.318;2022-10-16T14:22:59;99119.50;;;19.91;70.13
28181;BME280;15464;50.988;10.318;2022-10-16T14:25:29;99114.13;;;19.91;70.09
28181;BME280;15464;50.988;10.318;2022-10-16T14:33:46;99125.97;;;19.53;71.20
28181;BME280;15464;50.988;10.318;2022-10-16T14:36:14;99126.56;;;19.40;71.82
28181;BME280;15464;50.988;10.318;2022-10-16T14:38:43;99133.81;;;19.40;71.98
28181;BME280;15464;50.988;10.318;2022-10-16T14:41:14;99136.13;;;19.43;71.82
28181;BME280;15464;50.988;10.318;2022-10-16T14:43:42;99133.25;;;19.29;72.33
28181;BME280;15464;50.988;10.318;2022-10-16T14:46:19;99138.69;;;19.21;73.27
28181;BME280;15464;50.988;10.318;2022-10-16T14:48:58;99142.38;;;19.20;72.83
28181;BME280;15464;50.988;10.318;2022-10-16T14:51:27;99143.81;;;19.08;73.09
28181;BME280;15464;50.988;10.318;2022-10-16T14:53:53;99143.75;;;19.16;72.82
28181;BME280;15464;50.988;10.318;2022-10-16T14:56:29;99149.53;;;19.28;73.49
28181;BME280;15464;50.988;10.318;2022-10-16T14:58:58;99143.38;;;19.19;73.31
28181;BME280;15464;50.988;10.318;2022-10-16T15:01:26;99145.50;;;19.09;73.81
28181;BME280;15464;50.988;10.318;2022-10-16T15:03:52;99138.56;;;19.15;73.98